createdAt,value
2017-09-01T00:00:44.175Z,101282.32
2017-09-01T00:03:12.482Z,101275.00
2017-09-01T00:05:40.802Z,101280.28
2017-09-01T00:08:09.107Z,101279.59
2017-09-01T00:10:37.430Z,101276.55
2017-09-01T00:13:05.741Z,101268.03
2017-09-01T00:15:34.118Z,101265.33
2017-09-01T00:18:02.427Z,101271.64
2017-09-01T00:20:30.732Z,101272.67
2017-09-01T00:22:59.045Z,101263.87
2017-09-01T00:25:27.350Z,101267.83
2017-09-01T00:27:55.662Z,101262.43
2017-09-01T00:30:23.974Z,101264.02
2017-09-01T00:32:52.288Z,101264.83
2017-09-01T00:35:20.594Z,101269.75
2017-09-01T00:37:48.925Z,101263.14
2017-09-01T00:40:17.234Z,101263.34
2017-09-01T00:42:45.542Z,101267.72
2017-09-01T00:45:13.862Z,101265.95
2017-09-01T00:47:42.179Z,101273.71
2017-09-01T00:50:10.505Z,101261.57
2017-09-01T00:52:38.796Z,101269.95
2017-09-01T00:55:07.105Z,101272.30
2017-09-01T00:57:35.400Z,101269.61
2017-09-01T01:00:03.709Z,101267.31
2017-09-01T01:02:32.010Z,101260.15
2017-09-01T01:05:00.316Z,101259.88
2017-09-01T01:07:28.650Z,101267.80
2017-09-01T01:09:56.961Z,101269.39
2017-09-01T01:12:25.281Z,101265.77
2017-09-01T01:14:53.637Z,101265.77
2017-09-01T01:17:21.942Z,101267.05
2017-09-01T01:19:50.292Z,101260.11
2017-09-01T01:22:18.618Z,101268.44
2017-09-01T01:24:46.917Z,101266.40
2017-09-01T01:27:15.245Z,101266.34
2017-09-01T01:29:43.569Z,101268.72
2017-09-01T01:32:11.865Z,101256.30
2017-09-01T01:34:40.184Z,101258.46
2017-09-01T01:37:08.485Z,101263.31
2017-09-01T01:39:36.798Z,101256.30
2017-09-01T01:42:05.130Z,101267.41
2017-09-01T01:44:33.455Z,101267.16
2017-09-01T01:47:01.769Z,101268.03
2017-09-01T01:49:30.077Z,101272.20
2017-09-01T01:51:58.397Z,101270.11
2017-09-01T01:54:26.734Z,101268.40
2017-09-01T01:56:55.053Z,101269.67
2017-09-01T01:59:23.362Z,101274.41
2017-09-01T02:01:51.677Z,101277.80
2017-09-01T02:04:19.986Z,101279.45
2017-09-01T02:06:48.292Z,101277.27
2017-09-01T02:09:16.585Z,101281.02
2017-09-01T02:11:44.895Z,101282.80
2017-09-01T02:14:13.226Z,101282.03
2017-09-01T02:16:41.581Z,101277.69
2017-09-01T02:19:09.908Z,101272.29
2017-09-01T02:21:38.220Z,101276.31
2017-09-01T02:24:06.534Z,101268.32
2017-09-01T02:26:34.874Z,101273.84
2017-09-01T02:29:03.257Z,101273.52
2017-09-01T02:31:31.561Z,101269.60
2017-09-01T02:33:59.869Z,101274.80
2017-09-01T02:36:28.168Z,101270.89
2017-09-01T02:38:56.513Z,101264.19
2017-09-01T02:41:24.823Z,101261.03
2017-09-01T02:43:53.131Z,101260.63
2017-09-01T02:46:21.432Z,101262.20
2017-09-01T02:48:49.732Z,101259.59
2017-09-01T02:51:18.081Z,101261.73
2017-09-01T02:53:46.395Z,101265.17
2017-09-01T02:56:14.721Z,101267.77
2017-09-01T02:58:43.026Z,101264.94
2017-09-01T03:01:11.333Z,101260.43
2017-09-01T03:03:39.633Z,101259.64
2017-09-01T03:06:08.180Z,101258.53
2017-09-01T03:08:36.496Z,101255.75
2017-09-01T03:11:04.805Z,101252.67
2017-09-01T03:13:33.158Z,101252.62
2017-09-01T03:16:01.474Z,101243.30
2017-09-01T03:18:29.813Z,101248.28
2017-09-01T03:20:58.125Z,101240.92
2017-09-01T03:23:26.516Z,101242.28
2017-09-01T03:25:54.822Z,101243.64
2017-09-01T03:28:23.160Z,101244.26
2017-09-01T03:30:51.478Z,101249.88
2017-09-01T03:33:19.788Z,101252.09
2017-09-01T03:35:48.098Z,101254.40
2017-09-01T03:38:16.400Z,101257.06
2017-09-01T03:40:44.729Z,101257.22
2017-09-01T03:43:13.021Z,101260.48
2017-09-01T03:45:41.363Z,101259.48
2017-09-01T03:48:09.697Z,101260.61
2017-09-01T03:50:38.030Z,101269.02
2017-09-01T03:53:06.334Z,101275.14
2017-09-01T03:55:34.652Z,101276.16
2017-09-01T03:58:02.966Z,101273.23
2017-09-01T04:00:31.304Z,101282.36
2017-09-01T04:02:59.886Z,101276.48
2017-09-01T04:05:28.204Z,101277.56
2017-09-01T04:07:56.532Z,101280.20
2017-09-01T04:10:24.858Z,101283.03
2017-09-01T04:12:53.187Z,101285.22
2017-09-01T04:15:21.518Z,101283.48
2017-09-01T04:17:49.841Z,101279.92
2017-09-01T04:20:18.147Z,101280.87
2017-09-01T04:22:46.492Z,101287.97
2017-09-01T04:25:14.804Z,101288.68
2017-09-01T04:27:43.114Z,101291.89
2017-09-01T04:30:11.458Z,101290.28
2017-09-01T04:32:39.765Z,101296.80
2017-09-01T04:35:08.870Z,101293.91
2017-09-01T04:37:37.194Z,101302.50
2017-09-01T04:40:05.500Z,101302.98
2017-09-01T04:42:33.805Z,101306.94
2017-09-01T04:45:02.138Z,101314.27
2017-09-01T04:47:30.454Z,101308.55
2017-09-01T04:49:58.775Z,101318.79
2017-09-01T04:52:27.089Z,101311.15
2017-09-01T04:54:55.425Z,101314.52
2017-09-01T04:57:23.747Z,101313.23
2017-09-01T04:59:52.100Z,101319.36
2017-09-01T05:02:20.408Z,101325.45
2017-09-01T05:04:48.709Z,101326.05
2017-09-01T05:07:17.100Z,101317.95
2017-09-01T05:09:45.716Z,101314.80
2017-09-01T05:12:14.017Z,101315.19
2017-09-01T05:14:42.337Z,101314.52
2017-09-01T05:17:10.646Z,101321.36
2017-09-01T05:19:39.024Z,101321.53
2017-09-01T05:22:07.369Z,101311.67
2017-09-01T05:24:35.690Z,101314.52
2017-09-01T05:27:03.998Z,101314.13
2017-09-01T05:29:32.317Z,101322.64
2017-09-01T05:32:00.625Z,101319.95
2017-09-01T05:34:28.968Z,101312.77
2017-09-01T05:36:57.309Z,101314.94
2017-09-01T05:39:25.615Z,101313.18
2017-09-01T05:41:53.945Z,101319.99
2017-09-01T05:44:22.269Z,101322.57
2017-09-01T05:46:50.581Z,101320.95
2017-09-01T05:49:18.897Z,101334.39
2017-09-01T05:51:47.205Z,101328.70
2017-09-01T05:54:15.521Z,101327.44
2017-09-01T05:56:43.869Z,101323.91
2017-09-01T05:59:12.177Z,101316.33
2017-09-01T06:01:40.487Z,101322.47
2017-09-01T06:04:08.811Z,101322.64
2017-09-01T06:06:37.119Z,101327.31
2017-09-01T06:09:05.441Z,101326.86
2017-09-01T06:11:33.761Z,101329.77
2017-09-01T06:14:02.064Z,101326.48
2017-09-01T06:16:30.397Z,101333.53
2017-09-01T06:18:58.717Z,101327.77
2017-09-01T06:21:27.024Z,101336.41
2017-09-01T06:23:55.332Z,101331.17
2017-09-01T06:26:23.650Z,101326.58
2017-09-01T06:28:51.956Z,101335.86
2017-09-01T06:31:20.268Z,101337.48
2017-09-01T06:33:48.581Z,101339.23
2017-09-01T06:36:16.903Z,101337.92
2017-09-01T06:38:45.222Z,101339.57
2017-09-01T06:41:13.547Z,101340.27
2017-09-01T06:43:41.863Z,101336.66
2017-09-01T06:46:10.184Z,101338.53
2017-09-01T06:48:38.497Z,101327.41
2017-09-01T06:51:06.797Z,101329.72
2017-09-01T06:53:35.120Z,101334.83
2017-09-01T06:56:03.426Z,101338.61
2017-09-01T06:58:31.738Z,101342.81
2017-09-01T07:01:00.053Z,101342.76
2017-09-01T07:03:28.370Z,101339.14
2017-09-01T07:05:56.674Z,101338.95
2017-09-01T07:08:25.015Z,101338.15
2017-09-01T07:10:53.333Z,101340.31
2017-09-01T07:13:21.644Z,101341.38
2017-09-01T07:15:49.969Z,101332.14
2017-09-01T07:18:18.272Z,101335.85
2017-09-01T07:20:46.586Z,101334.11
2017-09-01T07:23:14.885Z,101332.63
2017-09-01T07:25:43.215Z,101337.12
2017-09-01T07:28:11.526Z,101323.20
2017-09-01T07:30:39.848Z,101335.11
2017-09-01T07:33:08.168Z,101334.93
2017-09-01T07:35:36.494Z,101341.27
2017-09-01T07:38:04.811Z,101333.55
2017-09-01T07:40:33.160Z,101338.66
2017-09-01T07:43:01.466Z,101334.27
2017-09-01T07:45:29.768Z,101333.56
2017-09-01T07:47:58.082Z,101332.05
2017-09-01T07:50:26.381Z,101326.66
2017-09-01T07:52:54.701Z,101327.64
2017-09-01T07:55:23.003Z,101325.72
2017-09-01T07:57:51.321Z,101324.33
2017-09-01T08:00:19.627Z,101320.66
2017-09-01T08:02:47.928Z,101329.56
2017-09-01T08:05:16.240Z,101321.44
2017-09-01T08:07:44.548Z,101321.55
2017-09-01T08:10:12.849Z,101329.38
2017-09-01T08:12:41.182Z,101330.47
2017-09-01T08:15:09.491Z,101333.02
2017-09-01T08:17:37.807Z,101330.92
2017-09-01T08:20:06.120Z,101331.90
2017-09-01T08:22:34.429Z,101329.97
2017-09-01T08:25:02.745Z,101330.12
2017-09-01T08:27:31.071Z,101331.87
2017-09-01T08:29:59.394Z,101337.67
2017-09-01T08:32:27.696Z,101341.39
2017-09-01T08:34:56.004Z,101343.07
2017-09-01T08:37:24.300Z,101339.96
2017-09-01T08:39:52.601Z,101337.41
2017-09-01T08:42:20.931Z,101336.59
2017-09-01T08:44:49.277Z,101328.45
2017-09-01T08:47:17.597Z,101330.64
2017-09-01T08:49:45.889Z,101337.00
2017-09-01T08:52:14.210Z,101334.25
2017-09-01T08:54:42.525Z,101334.08
2017-09-01T08:57:10.844Z,101335.37
2017-09-01T08:59:39.149Z,101338.50
2017-09-01T09:02:07.454Z,101343.36
2017-09-01T09:04:35.766Z,101339.61
2017-09-01T09:07:04.094Z,101337.69
2017-09-01T09:09:32.424Z,101343.84
2017-09-01T09:12:00.757Z,101337.05
2017-09-01T09:14:29.048Z,101327.44
2017-09-01T09:16:57.349Z,101338.09
2017-09-01T09:19:25.672Z,101339.06
2017-09-01T09:21:53.971Z,101346.03
2017-09-01T09:24:22.305Z,101349.91
2017-09-01T09:26:51.281Z,101342.08
2017-09-01T09:29:19.587Z,101344.20
2017-09-01T09:31:47.888Z,101344.44
2017-09-01T09:34:16.197Z,101342.92
2017-09-01T09:36:44.557Z,101337.05
2017-09-01T09:39:12.870Z,101331.63
2017-09-01T09:41:41.177Z,101334.59
2017-09-01T09:44:09.505Z,101329.68
2017-09-01T09:46:37.818Z,101327.88
2017-09-01T09:49:06.129Z,101327.09
2017-09-01T09:51:34.455Z,101336.16
2017-09-01T09:54:02.775Z,101330.59
2017-09-01T09:56:31.090Z,101321.59
2017-09-01T09:58:59.397Z,101319.73
2017-09-01T10:01:27.711Z,101314.13
2017-09-01T10:03:56.037Z,101316.15
2017-09-01T10:06:24.368Z,101310.98
2017-09-01T10:08:53.298Z,101312.02
2017-09-01T10:11:21.636Z,101304.02
2017-09-01T10:13:49.932Z,101302.06
2017-09-01T10:16:18.234Z,101308.39
2017-09-01T10:18:46.545Z,101315.17
2017-09-01T10:21:14.857Z,101309.92
2017-09-01T10:23:43.165Z,101309.38
2017-09-01T10:26:11.475Z,101306.32
2017-09-01T10:28:39.781Z,101304.16
2017-09-01T10:31:08.082Z,101299.36
2017-09-01T10:33:36.389Z,101301.84
2017-09-01T10:36:04.688Z,101298.33
2017-09-01T10:38:32.992Z,101298.95
2017-09-01T10:41:01.289Z,101299.25
2017-09-01T10:43:29.607Z,101306.55
2017-09-01T10:45:57.908Z,101313.53
2017-09-01T10:48:43.955Z,101316.97
2017-09-01T10:51:30.038Z,101324.58
2017-09-01T10:57:28.497Z,101317.63
2017-09-01T10:59:56.820Z,101312.22
2017-09-01T11:02:25.113Z,101313.88
2017-09-01T11:04:53.413Z,101318.30
2017-09-01T11:07:21.719Z,101319.61
2017-09-01T11:09:50.013Z,101317.64
2017-09-01T11:12:18.322Z,101319.16
2017-09-01T11:14:46.612Z,101326.61
2017-09-01T11:17:14.913Z,101317.41
2017-09-01T11:19:48.576Z,101313.53
2017-09-01T11:22:22.522Z,101313.38
2017-09-01T11:24:50.821Z,101312.50
2017-09-01T11:27:19.118Z,101308.05
2017-09-01T11:29:47.429Z,101315.52
2017-09-01T11:32:15.726Z,101310.31
2017-09-01T11:34:44.033Z,101305.30
2017-09-01T11:37:12.356Z,101306.08
2017-09-01T11:39:40.702Z,101300.85
2017-09-01T11:42:09.014Z,101299.38
2017-09-01T11:44:37.318Z,101300.50
2017-09-01T11:47:05.612Z,101299.79
2017-09-01T11:49:33.916Z,101300.25
2017-09-01T11:52:02.220Z,101296.97
2017-09-01T11:54:30.553Z,101292.88
2017-09-01T11:56:58.849Z,101298.24
2017-09-01T12:02:00.654Z,101294.50
2017-09-01T12:04:29.013Z,101288.16
2017-09-01T12:06:57.330Z,101289.09
2017-09-01T12:09:25.640Z,101287.75
2017-09-01T12:11:53.982Z,101281.58
2017-09-01T12:14:22.286Z,101281.39
2017-09-01T12:16:51.304Z,101277.72
2017-09-01T12:19:19.616Z,101275.34
2017-09-01T12:21:47.916Z,101273.14
2017-09-01T12:24:16.224Z,101271.98
2017-09-01T12:26:44.526Z,101265.67
2017-09-01T12:29:12.836Z,101263.25
2017-09-01T12:31:41.137Z,101269.80
2017-09-01T12:34:09.441Z,101267.79
2017-09-01T12:36:37.744Z,101265.04
2017-09-01T12:39:06.052Z,101263.41
2017-09-01T12:41:34.352Z,101258.67
2017-09-01T12:44:02.709Z,101257.14
2017-09-01T12:46:31.013Z,101248.54
2017-09-01T12:48:59.308Z,101253.35
2017-09-01T12:51:27.625Z,101237.69
2017-09-01T12:53:55.939Z,101238.28
2017-09-01T12:56:24.294Z,101238.55
2017-09-01T12:58:52.600Z,101232.09
2017-09-01T13:01:20.912Z,101233.23
2017-09-01T13:03:49.210Z,101227.99
2017-09-01T13:06:17.549Z,101226.94
2017-09-01T13:08:45.853Z,101231.47
2017-09-01T13:11:14.154Z,101222.38
2017-09-01T13:13:42.480Z,101220.14
2017-09-01T13:16:10.788Z,101222.47
2017-09-01T13:18:39.097Z,101211.58
2017-09-01T13:21:07.387Z,101211.64
2017-09-01T13:23:35.706Z,101210.47
2017-09-01T13:26:04.004Z,101213.04
2017-09-01T13:28:32.346Z,101216.05
2017-09-01T13:31:00.657Z,101205.45
2017-09-01T13:33:28.965Z,101215.53
2017-09-01T13:35:57.268Z,101204.58
2017-09-01T13:38:25.583Z,101198.63
2017-09-01T13:40:53.910Z,101198.88
2017-09-01T13:43:22.238Z,101192.81
2017-09-01T13:45:50.545Z,101190.08
2017-09-01T13:48:18.854Z,101182.56
2017-09-01T13:50:47.184Z,101186.23
2017-09-01T13:53:15.489Z,101190.17
2017-09-01T13:55:43.788Z,101179.20
2017-09-01T13:58:12.099Z,101175.73
2017-09-01T14:00:40.396Z,101186.30
2017-09-01T14:03:08.709Z,101190.05
2017-09-01T14:05:37.017Z,101188.25
2017-09-01T14:08:05.355Z,101179.55
2017-09-01T14:10:33.674Z,101190.42
2017-09-01T14:13:02.019Z,101195.52
2017-09-01T14:15:30.356Z,101203.89
2017-09-01T14:17:58.694Z,101201.75
2017-09-01T14:20:27.010Z,101198.91
2017-09-01T14:22:55.325Z,101191.29
2017-09-01T14:25:23.632Z,101196.05
2017-09-01T14:27:51.932Z,101197.77
2017-09-01T14:30:20.242Z,101193.34
2017-09-01T14:32:48.540Z,101188.66
2017-09-01T14:35:16.853Z,101184.30
2017-09-01T14:37:45.169Z,101182.92
2017-09-01T14:40:13.470Z,101182.52
2017-09-01T14:42:41.838Z,101186.75
2017-09-01T14:45:10.156Z,101184.12
2017-09-01T14:47:38.498Z,101179.28
2017-09-01T14:50:06.798Z,101184.75
2017-09-01T14:52:35.120Z,101184.24
2017-09-01T14:55:03.768Z,101175.70
2017-09-01T14:57:32.057Z,101179.06
2017-09-01T15:00:00.369Z,101174.92
2017-09-01T15:02:28.678Z,101176.24
2017-09-01T15:04:56.985Z,101178.53
2017-09-01T15:07:25.284Z,101178.16
2017-09-01T15:09:53.612Z,101170.38
2017-09-01T15:12:21.917Z,101169.14
2017-09-01T15:14:50.226Z,101169.22
2017-09-01T15:17:18.532Z,101166.44
2017-09-01T15:19:46.846Z,101153.70
2017-09-01T15:22:15.200Z,101174.45
2017-09-01T15:24:43.533Z,101172.06
2017-09-01T15:27:11.825Z,101175.70
2017-09-01T15:29:40.116Z,101168.42
2017-09-01T15:32:08.737Z,101165.39
2017-09-01T15:34:37.030Z,101158.58
2017-09-01T15:37:05.345Z,101157.52
2017-09-01T15:39:33.668Z,101159.78
2017-09-01T15:42:01.980Z,101167.03
2017-09-01T15:44:30.290Z,101169.31
2017-09-01T15:46:58.617Z,101171.25
2017-09-01T15:49:26.929Z,101165.51
2017-09-01T15:51:55.253Z,101163.80
2017-09-01T15:54:23.557Z,101165.84
2017-09-01T15:56:51.869Z,101158.48
2017-09-01T15:59:20.184Z,101170.16
2017-09-01T16:01:48.485Z,101161.36
2017-09-01T16:04:16.820Z,101154.09
2017-09-01T16:06:45.117Z,101147.69
2017-09-01T16:09:13.412Z,101148.06
2017-09-01T16:11:41.749Z,101142.05
2017-09-01T16:14:10.058Z,101141.99
2017-09-01T16:16:38.357Z,101137.92
2017-09-01T16:19:06.657Z,101134.63
2017-09-01T16:21:34.976Z,101141.25
2017-09-01T16:24:03.273Z,101141.08
2017-09-01T16:26:31.580Z,101147.70
2017-09-01T16:28:59.873Z,101146.28
2017-09-01T16:31:28.213Z,101143.34
2017-09-01T16:33:56.512Z,101144.31
2017-09-01T16:36:24.818Z,101138.64
2017-09-01T16:38:53.322Z,101140.28
2017-09-01T16:41:21.630Z,101151.44
2017-09-01T16:43:49.973Z,101147.58
2017-09-01T16:46:18.273Z,101157.94
2017-09-01T16:48:46.589Z,101153.28
2017-09-01T16:51:14.885Z,101150.42
2017-09-01T16:53:43.215Z,101147.28
2017-09-01T16:56:11.516Z,101139.30
2017-09-01T16:58:39.840Z,101136.02
2017-09-01T17:01:08.151Z,101142.77
2017-09-01T17:03:36.449Z,101145.80
2017-09-01T17:06:04.772Z,101142.77
2017-09-01T17:08:33.068Z,101139.19
2017-09-01T17:11:01.383Z,101138.63
2017-09-01T17:13:29.690Z,101137.10
2017-09-01T17:15:57.997Z,101137.41
2017-09-01T17:18:26.312Z,101138.76
2017-09-01T17:20:54.624Z,101136.97
2017-09-01T17:23:22.925Z,101138.48
2017-09-01T17:25:51.256Z,101132.14
2017-09-01T17:28:19.553Z,101133.64
2017-09-01T17:30:47.856Z,101129.11
2017-09-01T17:33:16.212Z,101132.39
2017-09-01T17:35:44.522Z,101133.91
2017-09-01T17:38:12.828Z,101141.30
2017-09-01T17:40:41.136Z,101145.14
2017-09-01T17:43:09.456Z,101151.42
2017-09-01T17:45:37.777Z,101150.28
2017-09-01T17:48:06.096Z,101151.06
2017-09-01T17:50:34.385Z,101149.92
2017-09-01T17:53:02.730Z,101146.03
2017-09-01T17:55:31.041Z,101148.33
2017-09-01T17:57:59.349Z,101148.02
2017-09-01T18:00:27.657Z,101166.26
2017-09-01T18:02:55.997Z,101165.41
2017-09-01T18:05:24.313Z,101163.58
2017-09-01T18:07:52.622Z,101163.41
2017-09-01T18:10:20.936Z,101162.34
2017-09-01T18:12:49.873Z,101156.43
2017-09-01T18:15:18.193Z,101145.63
2017-09-01T18:17:46.504Z,101142.37
2017-09-01T18:20:14.804Z,101143.00
2017-09-01T18:22:43.113Z,101142.16
2017-09-01T18:25:11.436Z,101141.52
2017-09-01T18:27:39.742Z,101150.25
2017-09-01T18:30:08.056Z,101152.82
2017-09-01T18:32:36.370Z,101153.47
2017-09-01T18:35:04.679Z,101151.59
2017-09-01T18:37:33.004Z,101150.26
2017-09-01T18:40:01.316Z,101149.13
2017-09-01T18:42:29.689Z,101155.53
2017-09-01T18:44:57.999Z,101162.81
2017-09-01T18:47:26.317Z,101161.06
2017-09-01T18:49:54.628Z,101159.85
2017-09-01T18:52:22.924Z,101165.21
2017-09-01T18:54:51.258Z,101163.16
2017-09-01T18:57:19.573Z,101170.41
2017-09-01T18:59:47.904Z,101166.98
2017-09-01T19:02:16.217Z,101164.25
2017-09-01T19:04:44.536Z,101161.02
2017-09-01T19:07:12.871Z,101161.94
2017-09-01T19:09:41.188Z,101163.31
2017-09-01T19:12:09.523Z,101161.12
2017-09-01T19:14:37.817Z,101156.16
2017-09-01T19:17:06.136Z,101149.27
2017-09-01T19:19:34.458Z,101159.08
2017-09-01T19:22:02.782Z,101158.25
2017-09-01T19:24:31.106Z,101164.50
2017-09-01T19:26:59.466Z,101161.77
2017-09-01T19:29:27.789Z,101163.27
2017-09-01T19:31:56.102Z,101164.22
2017-09-01T19:34:24.431Z,101156.61
2017-09-01T19:36:52.731Z,101168.50
2017-09-01T19:39:21.057Z,101177.53
2017-09-01T19:41:49.856Z,101180.00
2017-09-01T19:44:18.164Z,101176.95
2017-09-01T19:46:46.478Z,101174.64
2017-09-01T19:49:14.807Z,101169.84
2017-09-01T19:51:43.128Z,101175.22
2017-09-01T19:54:11.456Z,101171.43
2017-09-01T19:56:39.761Z,101169.64
2017-09-01T19:59:08.066Z,101169.93
2017-09-01T20:01:36.373Z,101174.00
2017-09-01T20:04:04.681Z,101172.25
2017-09-01T20:06:33.020Z,101172.92
2017-09-01T20:09:01.321Z,101173.41
2017-09-01T20:11:29.641Z,101167.84
2017-09-01T20:13:57.950Z,101171.70
2017-09-01T20:16:26.273Z,101171.97
2017-09-01T20:18:54.587Z,101170.47
2017-09-01T20:21:22.907Z,101170.20
2017-09-01T20:23:51.216Z,101168.80
2017-09-01T20:26:19.532Z,101162.31
2017-09-01T20:28:47.845Z,101163.19
2017-09-01T20:31:16.197Z,101159.37
2017-09-01T20:33:44.494Z,101161.71
2017-09-01T20:36:12.825Z,101168.44
2017-09-01T20:38:41.821Z,101161.76
2017-09-01T20:41:10.148Z,101165.53
2017-09-01T20:43:38.491Z,101160.75
2017-09-01T20:46:06.811Z,101156.97
2017-09-01T20:48:35.171Z,101155.73
2017-09-01T20:51:03.469Z,101148.95
2017-09-01T20:53:31.784Z,101151.50
2017-09-01T20:56:00.103Z,101150.11
2017-09-01T20:58:28.434Z,101139.21
2017-09-01T21:00:56.738Z,101152.69
2017-09-01T21:03:25.038Z,101158.91
2017-09-01T21:05:53.367Z,101158.13
2017-09-01T21:08:21.696Z,101147.92
2017-09-01T21:10:50.021Z,101152.09
2017-09-01T21:13:18.338Z,101152.59
2017-09-01T21:15:46.649Z,101157.08
2017-09-01T21:18:14.952Z,101157.72
2017-09-01T21:20:43.282Z,101158.31
2017-09-01T21:23:11.588Z,101159.06
2017-09-01T21:25:39.896Z,101162.87
2017-09-01T21:28:08.196Z,101163.11
2017-09-01T21:30:36.525Z,101166.71
2017-09-01T21:33:04.830Z,101160.34
2017-09-01T21:35:33.175Z,101168.72
2017-09-01T21:38:01.505Z,101170.70
2017-09-01T21:40:29.817Z,101167.45
2017-09-01T21:42:58.139Z,101172.34
2017-09-01T21:45:26.448Z,101166.33
2017-09-01T21:47:54.757Z,101167.53
2017-09-01T21:50:23.067Z,101170.73
2017-09-01T21:52:51.395Z,101166.09
2017-09-01T21:55:19.707Z,101163.34
2017-09-01T21:57:48.371Z,101168.80
2017-09-01T22:00:16.670Z,101159.00
2017-09-01T22:02:45.011Z,101160.05
2017-09-01T22:05:13.321Z,101158.16
2017-09-01T22:07:41.641Z,101149.63
2017-09-01T22:10:09.967Z,101155.67
2017-09-01T22:12:38.269Z,101152.37
2017-09-01T22:15:06.589Z,101152.53
2017-09-01T22:17:34.887Z,101158.34
2017-09-01T22:20:03.213Z,101153.33
2017-09-01T22:22:31.513Z,101154.45
2017-09-01T22:24:59.854Z,101162.77
2017-09-01T22:27:28.164Z,101153.48
2017-09-01T22:29:56.472Z,101151.79
2017-09-01T22:32:24.775Z,101150.05
2017-09-01T22:34:53.075Z,101155.80
2017-09-01T22:37:21.381Z,101154.25
2017-09-01T22:39:49.689Z,101154.31
2017-09-01T22:42:18.019Z,101146.33
2017-09-01T22:44:46.320Z,101141.28
2017-09-01T22:47:14.652Z,101141.87
2017-09-01T22:49:42.971Z,101148.41
2017-09-01T22:52:11.294Z,101145.79
2017-09-01T22:54:39.627Z,101138.01
2017-09-01T22:57:07.937Z,101142.22
2017-09-01T22:59:36.236Z,101133.21
2017-09-01T23:02:04.554Z,101137.23
2017-09-01T23:04:32.931Z,101129.43
2017-09-01T23:07:01.230Z,101124.55
2017-09-01T23:09:29.553Z,101132.89
2017-09-01T23:11:57.865Z,101127.63
2017-09-01T23:14:26.181Z,101125.66
2017-09-01T23:16:54.493Z,101123.07
2017-09-01T23:19:22.795Z,101128.34
2017-09-01T23:21:51.129Z,101130.66
2017-09-01T23:24:19.442Z,101122.28
2017-09-01T23:26:47.761Z,101121.06
2017-09-01T23:29:16.069Z,101123.10
2017-09-01T23:31:44.415Z,101117.19
2017-09-01T23:34:12.718Z,101111.95
2017-09-01T23:36:41.023Z,101113.63
2017-09-01T23:39:09.358Z,101119.14
2017-09-01T23:41:37.657Z,101121.22
2017-09-01T23:44:05.966Z,101117.00
2017-09-01T23:46:34.279Z,101120.06
2017-09-01T23:49:02.622Z,101118.58
2017-09-01T23:51:30.932Z,101118.41
2017-09-01T23:53:59.240Z,101109.59
2017-09-01T23:56:27.538Z,101112.41
2017-09-01T23:58:55.874Z,101112.34
